Ana Sayfa
METAR-TAF:

METAR-TAF

Havaalanları :

Municipal_Airport

Plymouth, New Hampshire, Amerika Birleşik Devletleri

Enlem: 43-46-45N, Boylam: 071-45-13W, yükseklik: 154 m

Güncel hava durumu gözlemi

Rapor saat 00:35 UTC de 5 dakika önce yapıldı.
Rüzgar batıdan 11 kt ve 27 kt'a kadar ani rüzgarlar
Sıcaklık -2°C
Nem 63%
Basınç 997 hPa
Görüş mesafesi: 16.1 km
2900 ft yükseklikte parçalı bulutlu
3600 ft yükseklikte parçalı bulutlu
4200 ft yükseklikte parçalı bulutlu

METAR: K1P1 280035Z AUTO 26011G27KT 10SM SCT029 SCT036 SCT042 M02/M08 A2944 RMK AO2 T10201083

Saat: 19:40 (00:40 UTC)


TAF: eksik

4.000'den fazla havaalanı için hava durumu gözlemleri ve tahminleri (METAR ve TAF raporları).

Kullanılabilir istasyonlar harita üzerinde sarı ve kırmızı noktalarla gösterilir.

İstasyonun adını görmek için fareyi noktanın üzerinde gezdirin.

Sonrasında hava gözlem ve tahminlerini görmek için tıklayın.

Haritayı değiştirmek için: yaklaştırmak için siyah artı işaretli yeşil düğmeye ve uzaklaştırmak için de eksi işaretli düğmeye hızla tıklayın; bitişik haritalar için yeşil okları kullanın.


METAR-TAF: